createdAt,value
2022-10-30T00:02:11.728Z,29.55
2022-10-30T00:04:39.476Z,28.73
2022-10-30T00:07:07.136Z,29.08
2022-10-30T00:09:53.094Z,28.13
2022-10-30T00:12:20.974Z,28.50
2022-10-30T00:14:48.649Z,29.15
2022-10-30T00:17:16.567Z,28.08
2022-10-30T00:19:44.252Z,30.35
2022-10-30T00:22:11.993Z,31.38
2022-10-30T00:24:39.947Z,31.15
2022-10-30T00:27:08.157Z,28.95
2022-10-30T00:29:35.977Z,28.58
2022-10-30T00:32:04.091Z,28.88
2022-10-30T00:34:31.922Z,29.48
2022-10-30T00:36:59.698Z,29.00
2022-10-30T00:39:27.975Z,27.92
2022-10-30T00:42:16.181Z,28.42
2022-10-30T00:45:02.380Z,29.30
2022-10-30T00:47:36.040Z,29.08
2022-10-30T00:50:15.768Z,29.13
2022-10-30T00:53:10.018Z,29.10
2022-10-30T00:56:02.431Z,28.27
2022-10-30T00:58:39.061Z,27.30
2022-10-30T01:01:28.872Z,28.30
2022-10-30T01:04:17.190Z,27.20
2022-10-30T01:06:52.132Z,27.27
2022-10-30T01:12:07.573Z,26.80
2022-10-30T01:14:39.395Z,26.33
2022-10-30T01:17:27.193Z,28.10
2022-10-30T01:20:18.470Z,27.10
2022-10-30T01:22:58.625Z,26.73
2022-10-30T01:25:38.881Z,25.80
2022-10-30T01:28:26.590Z,25.70
2022-10-30T01:31:51.222Z,26.20
2022-10-30T01:35:17.310Z,26.17
2022-10-30T01:38:26.661Z,26.67
2022-10-30T01:40:55.263Z,26.98
2022-10-30T01:43:43.913Z,26.02
2022-10-30T01:46:35.974Z,25.83
2022-10-30T01:49:27.929Z,26.95
2022-10-30T01:52:06.381Z,27.02
2022-10-30T01:55:13.789Z,25.77
2022-10-30T01:58:49.718Z,25.17
2022-10-30T02:01:39.977Z,26.58
2022-10-30T02:04:12.550Z,26.23
2022-10-30T02:06:58.953Z,25.42
2022-10-30T02:09:27.302Z,25.88
2022-10-30T02:12:13.848Z,25.48
2022-10-30T02:14:47.935Z,25.17
2022-10-30T02:17:34.391Z,24.67
2022-10-30T02:20:02.366Z,26.38
2022-10-30T02:22:31.362Z,24.00
2022-10-30T02:25:17.897Z,24.73
2022-10-30T02:27:45.811Z,25.23
2022-10-30T02:30:13.922Z,24.50
2022-10-30T02:32:42.434Z,25.20
2022-10-30T02:35:10.651Z,25.10
2022-10-30T02:37:39.658Z,25.35
2022-10-30T02:40:08.700Z,26.60
2022-10-30T02:42:37.114Z,24.75
2022-10-30T02:45:05.183Z,25.33
2022-10-30T02:47:33.974Z,26.02
2022-10-30T02:50:01.972Z,26.95
2022-10-30T02:52:29.813Z,26.02
2022-10-30T02:55:15.907Z,25.45
2022-10-30T02:58:02.028Z,24.95
2022-10-30T03:00:50.100Z,25.13
2022-10-30T03:03:21.430Z,25.27
2022-10-30T03:05:51.907Z,24.58
2022-10-30T03:08:19.877Z,24.92
2022-10-30T03:10:47.570Z,25.13
2022-10-30T03:13:15.564Z,25.50
2022-10-30T03:15:43.495Z,24.23
2022-10-30T03:18:13.414Z,24.52
2022-10-30T03:20:42.302Z,24.38
2022-10-30T03:23:28.974Z,25.80
2022-10-30T03:25:59.108Z,25.80
2022-10-30T03:28:30.010Z,25.20
2022-10-30T03:31:07.028Z,25.10
2022-10-30T03:33:36.558Z,25.45
2022-10-30T03:36:06.641Z,25.48
2022-10-30T03:38:34.803Z,23.85
2022-10-30T03:41:03.938Z,25.00
2022-10-30T03:43:50.656Z,25.63
2022-10-30T03:46:18.599Z,24.33
2022-10-30T03:48:50.659Z,25.33
2022-10-30T03:51:18.681Z,26.05
2022-10-30T03:53:48.400Z,25.52
2022-10-30T03:56:16.258Z,26.33
2022-10-30T03:58:48.590Z,27.60
2022-10-30T04:01:39.446Z,26.50
2022-10-30T04:04:07.740Z,24.75
2022-10-30T04:06:53.851Z,25.95
2022-10-30T04:09:23.076Z,24.67
2022-10-30T04:11:50.869Z,24.98
2022-10-30T04:14:18.718Z,24.35
2022-10-30T04:16:46.636Z,24.13
2022-10-30T04:19:14.432Z,25.15
2022-10-30T04:21:43.773Z,24.75
2022-10-30T04:24:16.150Z,24.73
2022-10-30T04:26:46.003Z,24.15
2022-10-30T04:29:14.561Z,24.20
2022-10-30T04:31:42.941Z,24.35
2022-10-30T04:34:29.114Z,24.65
2022-10-30T04:37:15.134Z,24.85
2022-10-30T04:40:02.843Z,24.52
2022-10-30T04:42:37.522Z,25.10
2022-10-30T04:45:24.169Z,25.73
2022-10-30T04:47:52.836Z,24.02
2022-10-30T04:50:20.726Z,25.15
2022-10-30T04:52:48.558Z,25.25
2022-10-30T04:55:16.728Z,25.13
2022-10-30T04:57:45.117Z,25.15
2022-10-30T05:00:32.267Z,25.25
2022-10-30T05:03:16.697Z,24.48
2022-10-30T05:05:44.660Z,25.23
2022-10-30T05:08:13.611Z,25.63
2022-10-30T05:10:41.652Z,25.80
2022-10-30T05:13:12.418Z,25.23
2022-10-30T05:15:40.537Z,25.02
2022-10-30T05:18:09.435Z,25.27
2022-10-30T05:20:37.505Z,25.65
2022-10-30T05:23:23.842Z,24.95
2022-10-30T05:25:51.991Z,24.65
2022-10-30T05:28:21.113Z,23.40
2022-10-30T05:30:57.117Z,24.83
2022-10-30T05:33:45.178Z,25.05
2022-10-30T05:36:14.442Z,24.42
2022-10-30T05:38:43.012Z,25.92
2022-10-30T05:41:18.508Z,25.92
2022-10-30T05:44:05.019Z,26.33
2022-10-30T05:46:34.325Z,26.77
2022-10-30T05:49:37.217Z,25.60
2022-10-30T05:52:10.392Z,29.23
2022-10-30T05:54:38.783Z,28.55
2022-10-30T05:57:33.791Z,27.70
2022-10-30T06:00:02.649Z,27.85
2022-10-30T06:02:32.923Z,28.38
2022-10-30T06:05:01.086Z,27.67
2022-10-30T06:07:28.999Z,26.80
2022-10-30T06:09:56.810Z,26.55
2022-10-30T06:12:37.446Z,25.80
2022-10-30T06:15:26.413Z,25.73
2022-10-30T06:18:12.861Z,26.80
2022-10-30T06:20:44.089Z,25.52
2022-10-30T06:23:30.403Z,25.55
2022-10-30T06:26:25.850Z,25.98
2022-10-30T06:28:57.473Z,24.02
2022-10-30T06:31:27.047Z,24.58
2022-10-30T06:33:55.087Z,23.83
2022-10-30T06:36:23.024Z,24.70
2022-10-30T06:38:50.906Z,23.83
2022-10-30T06:41:24.642Z,23.65
2022-10-30T06:44:35.084Z,23.77
2022-10-30T06:47:03.162Z,23.55
2022-10-30T06:49:33.834Z,23.90
2022-10-30T06:52:01.600Z,22.17
2022-10-30T06:54:29.736Z,23.10
2022-10-30T06:57:04.638Z,22.40
2022-10-30T06:59:50.901Z,22.42
2022-10-30T07:02:35.833Z,21.95
2022-10-30T07:05:08.455Z,21.70
2022-10-30T07:07:36.909Z,21.25
2022-10-30T07:10:22.979Z,21.33
2022-10-30T07:13:29.087Z,20.92
2022-10-30T07:16:03.117Z,21.30
2022-10-30T07:18:41.357Z,21.13
2022-10-30T07:21:09.128Z,21.42
2022-10-30T07:23:37.760Z,20.30
2022-10-30T07:26:38.207Z,18.25
2022-10-30T07:29:27.612Z,18.45
2022-10-30T07:32:14.294Z,17.88
2022-10-30T07:34:50.905Z,17.17
2022-10-30T07:37:21.392Z,17.30
2022-10-30T07:40:12.542Z,17.75
2022-10-30T07:43:07.258Z,17.65
2022-10-30T07:48:31.704Z,17.52
2022-10-30T07:51:16.381Z,16.30
2022-10-30T07:54:02.840Z,15.73
2022-10-30T07:56:30.924Z,15.93
2022-10-30T07:59:18.908Z,15.38
2022-10-30T08:02:02.695Z,16.88
2022-10-30T08:04:43.857Z,16.67
2022-10-30T08:07:33.093Z,15.45
2022-10-30T08:10:00.907Z,16.23
2022-10-30T08:12:29.254Z,15.23
2022-10-30T08:14:57.435Z,14.68
2022-10-30T08:17:25.450Z,14.50
2022-10-30T08:19:53.561Z,14.45
2022-10-30T08:22:21.552Z,13.95
2022-10-30T08:24:58.200Z,13.00
2022-10-30T08:28:00.912Z,12.75
2022-10-30T08:30:35.471Z,10.75
2022-10-30T08:33:07.433Z,10.90
2022-10-30T08:36:31.935Z,11.40
2022-10-30T08:39:19.075Z,10.90
2022-10-30T08:41:56.792Z,9.75
2022-10-30T08:44:24.546Z,9.25
2022-10-30T08:47:31.307Z,8.73
2022-10-30T08:49:59.271Z,8.88
2022-10-30T08:52:31.305Z,7.70
2022-10-30T08:55:17.602Z,7.45
2022-10-30T08:57:46.264Z,7.57
2022-10-30T09:00:14.485Z,6.93
2022-10-30T09:03:02.220Z,6.88
2022-10-30T09:05:51.073Z,7.07
2022-10-30T09:08:37.180Z,7.43
2022-10-30T09:11:25.543Z,7.65
2022-10-30T09:13:54.126Z,7.13
2022-10-30T09:16:41.013Z,6.78
2022-10-30T09:19:28.915Z,6.47
2022-10-30T09:21:59.300Z,6.70
2022-10-30T09:24:27.526Z,6.82
2022-10-30T09:26:56.114Z,6.50
2022-10-30T09:29:25.936Z,6.63
2022-10-30T09:32:10.687Z,6.35
2022-10-30T09:34:49.839Z,6.95
2022-10-30T09:37:42.669Z,6.75
2022-10-30T09:40:31.945Z,7.25
2022-10-30T09:43:22.275Z,7.22
2022-10-30T09:46:30.396Z,6.78
2022-10-30T09:51:53.601Z,6.65
2022-10-30T09:55:09.296Z,7.05
2022-10-30T09:57:55.680Z,6.15
2022-10-30T10:00:52.937Z,6.10
2022-10-30T10:03:56.815Z,5.70
2022-10-30T10:06:48.789Z,6.15
2022-10-30T10:09:38.714Z,5.70
2022-10-30T10:12:43.715Z,5.28
2022-10-30T10:15:34.049Z,5.35
2022-10-30T10:18:06.208Z,5.57
2022-10-30T10:20:41.444Z,5.13
2022-10-30T10:23:26.376Z,5.22
2022-10-30T10:25:55.179Z,5.47
2022-10-30T10:28:36.847Z,4.93
2022-10-30T10:31:29.103Z,4.68
2022-10-30T10:34:22.037Z,4.82
2022-10-30T10:37:06.919Z,4.90
2022-10-30T10:39:56.298Z,5.05
2022-10-30T10:42:23.901Z,5.20
2022-10-30T10:45:19.986Z,5.32
2022-10-30T10:51:41.977Z,4.78
2022-10-30T10:54:28.335Z,4.68
2022-10-30T10:56:56.848Z,4.75
2022-10-30T10:59:39.283Z,4.43
2022-10-30T11:02:09.860Z,3.70
2022-10-30T11:04:43.524Z,4.47
2022-10-30T11:07:33.782Z,3.80
2022-10-30T11:10:21.460Z,4.38
2022-10-30T11:12:49.832Z,4.60
2022-10-30T11:15:47.695Z,4.18
2022-10-30T11:18:35.067Z,4.72
2022-10-30T11:21:08.608Z,4.38
2022-10-30T11:23:49.722Z,3.80
2022-10-30T11:26:20.599Z,4.20
2022-10-30T11:28:56.480Z,4.18
2022-10-30T11:31:38.144Z,4.30
2022-10-30T11:34:20.441Z,4.30
2022-10-30T11:36:50.333Z,3.80
2022-10-30T11:39:30.114Z,2.78
2022-10-30T11:42:04.362Z,2.90
2022-10-30T11:44:39.296Z,2.88
2022-10-30T11:47:09.264Z,2.67
2022-10-30T11:50:04.748Z,2.50
2022-10-30T11:52:58.380Z,3.10
2022-10-30T11:55:37.957Z,2.75
2022-10-30T11:58:09.940Z,3.63
2022-10-30T12:00:40.970Z,2.80
2022-10-30T12:03:34.968Z,2.63
2022-10-30T12:06:09.140Z,2.40
2022-10-30T12:08:37.337Z,2.03
2022-10-30T12:11:06.849Z,2.20
2022-10-30T12:13:40.025Z,3.53
2022-10-30T12:16:16.764Z,3.10
2022-10-30T12:19:07.179Z,2.83
2022-10-30T12:21:43.497Z,2.72
2022-10-30T12:24:30.500Z,2.58
2022-10-30T12:27:03.330Z,2.40
2022-10-30T12:30:08.029Z,1.80
2022-10-30T12:32:45.745Z,2.30
2022-10-30T12:35:44.599Z,2.30
2022-10-30T12:38:34.909Z,4.65
2022-10-30T12:41:38.474Z,2.22
2022-10-30T12:44:13.407Z,1.92
2022-10-30T12:47:29.793Z,2.13
2022-10-30T12:50:16.194Z,1.75
2022-10-30T12:52:53.885Z,1.85
2022-10-30T12:55:47.956Z,2.00
2022-10-30T12:58:44.396Z,2.10
2022-10-30T13:01:42.531Z,2.10
2022-10-30T13:04:17.938Z,2.20
2022-10-30T13:07:06.143Z,2.00
2022-10-30T13:09:49.866Z,2.10
2022-10-30T13:12:39.608Z,2.38
2022-10-30T13:15:24.334Z,2.80
2022-10-30T13:17:52.249Z,3.00
2022-10-30T13:20:21.907Z,2.70
2022-10-30T13:23:12.947Z,2.35
2022-10-30T13:26:36.230Z,2.10
2022-10-30T13:29:22.311Z,2.47
2022-10-30T13:32:21.073Z,2.08
2022-10-30T13:35:12.195Z,2.40
2022-10-30T13:37:44.144Z,3.70
2022-10-30T13:40:36.009Z,3.42
2022-10-30T13:43:40.132Z,2.95
2022-10-30T13:46:27.664Z,3.05
2022-10-30T13:49:28.926Z,3.25
2022-10-30T13:52:17.718Z,3.20
2022-10-30T13:55:14.643Z,2.70
2022-10-30T13:58:15.853Z,2.85
2022-10-30T14:01:09.672Z,3.35
2022-10-30T14:04:36.594Z,3.95
2022-10-30T14:07:33.999Z,4.07
2022-10-30T14:10:16.655Z,4.28
2022-10-30T14:13:05.200Z,4.40
2022-10-30T14:15:55.626Z,4.90
2022-10-30T14:18:58.926Z,4.65
2022-10-30T14:21:43.419Z,5.82
2022-10-30T14:24:34.731Z,7.25
2022-10-30T14:27:05.778Z,7.93
2022-10-30T14:29:42.312Z,7.18
2022-10-30T14:32:15.708Z,7.65
2022-10-30T14:35:02.168Z,7.32
2022-10-30T14:37:48.317Z,7.40
2022-10-30T14:40:52.905Z,7.68
2022-10-30T14:43:55.613Z,8.93
2022-10-30T14:47:01.919Z,8.82
2022-10-30T14:49:29.917Z,8.70
2022-10-30T14:52:20.812Z,9.50
2022-10-30T14:55:16.658Z,9.23
2022-10-30T14:57:51.777Z,9.45
2022-10-30T15:00:25.955Z,9.43
2022-10-30T15:03:20.412Z,9.45
2022-10-30T15:05:54.563Z,9.38
2022-10-30T15:08:54.442Z,9.27
2022-10-30T15:11:27.822Z,9.63
2022-10-30T15:14:40.693Z,9.23
2022-10-30T15:17:30.528Z,10.52
2022-10-30T15:20:01.232Z,9.40
2022-10-30T15:22:52.686Z,10.23
2022-10-30T15:25:23.728Z,10.32
2022-10-30T15:28:17.194Z,11.27
2022-10-30T15:31:21.440Z,10.95
2022-10-30T15:33:49.307Z,12.90
2022-10-30T15:36:26.586Z,12.77
2022-10-30T15:39:06.075Z,13.32
2022-10-30T15:41:44.065Z,13.07
2022-10-30T15:46:50.955Z,13.18
2022-10-30T15:49:35.133Z,13.25
2022-10-30T15:52:12.166Z,13.48
2022-10-30T15:55:02.694Z,12.85
2022-10-30T15:58:02.289Z,13.25
2022-10-30T16:00:37.199Z,13.07
2022-10-30T16:03:23.717Z,13.70
2022-10-30T16:05:52.022Z,13.65
2022-10-30T16:08:24.711Z,14.38
2022-10-30T16:10:56.297Z,14.57
2022-10-30T16:13:28.822Z,14.93
2022-10-30T16:15:57.195Z,15.20
2022-10-30T16:18:30.532Z,14.82
2022-10-30T16:21:05.536Z,14.80
2022-10-30T16:23:54.236Z,14.75
2022-10-30T16:26:35.163Z,15.65
2022-10-30T16:29:21.205Z,15.75
2022-10-30T16:32:14.893Z,16.45
2022-10-30T16:34:44.183Z,17.23
2022-10-30T16:37:34.537Z,16.60
2022-10-30T16:40:16.911Z,15.27
2022-10-30T16:43:03.323Z,15.10
2022-10-30T16:45:34.269Z,15.43
2022-10-30T16:48:13.608Z,15.15
2022-10-30T16:50:41.617Z,16.85
2022-10-30T16:53:22.438Z,18.48
2022-10-30T16:55:51.950Z,18.65
2022-10-30T16:58:21.040Z,19.80
2022-10-30T17:00:52.411Z,23.73
2022-10-30T17:03:25.095Z,22.05
2022-10-30T17:06:08.367Z,23.58
2022-10-30T17:08:43.412Z,22.45
2022-10-30T17:11:20.886Z,22.90
2022-10-30T17:13:59.924Z,23.85
2022-10-30T17:16:33.043Z,23.65
2022-10-30T17:19:31.655Z,26.13
2022-10-30T17:22:07.976Z,25.02
2022-10-30T17:24:38.384Z,26.70
2022-10-30T17:27:25.292Z,31.80
2022-10-30T17:29:53.874Z,34.33
2022-10-30T17:32:27.379Z,47.33
2022-10-30T17:35:15.556Z,39.80
2022-10-30T17:37:43.679Z,35.15
2022-10-30T17:40:12.598Z,38.97
2022-10-30T17:42:41.182Z,36.80
2022-10-30T17:45:27.357Z,31.45
2022-10-30T17:47:55.332Z,36.45
2022-10-30T17:50:23.077Z,35.85
2022-10-30T17:52:50.948Z,40.85
2022-10-30T17:55:38.767Z,36.95
2022-10-30T17:58:06.752Z,37.10
2022-10-30T18:00:34.443Z,41.45
2022-10-30T18:03:02.813Z,46.25
2022-10-30T18:05:33.766Z,37.03
2022-10-30T18:08:20.118Z,32.38
2022-10-30T18:10:48.147Z,31.65
2022-10-30T18:13:16.057Z,31.42
2022-10-30T18:16:02.100Z,32.90
2022-10-30T18:18:30.048Z,38.25
2022-10-30T18:21:24.099Z,47.90
2022-10-30T18:23:53.475Z,48.10
2022-10-30T18:26:24.101Z,51.42
2022-10-30T18:29:11.451Z,50.20
2022-10-30T18:31:40.522Z,54.50
2022-10-30T18:34:16.316Z,49.22
2022-10-30T18:36:44.916Z,47.15
2022-10-30T18:39:13.392Z,48.33
2022-10-30T18:41:46.301Z,56.55
2022-10-30T18:44:32.636Z,55.13
2022-10-30T18:47:03.214Z,54.95
2022-10-30T18:49:33.359Z,55.50
2022-10-30T18:52:01.464Z,56.30
2022-10-30T18:54:29.165Z,75.20
2022-10-30T18:56:57.097Z,73.13
2022-10-30T18:59:24.788Z,71.22
2022-10-30T19:01:53.612Z,76.20
2022-10-30T19:04:22.557Z,62.35
2022-10-30T19:06:51.141Z,66.97
2022-10-30T19:09:18.814Z,51.38
2022-10-30T19:11:46.738Z,45.88
2022-10-30T19:14:16.020Z,44.03
2022-10-30T19:17:02.393Z,40.15
2022-10-30T19:19:30.220Z,40.90
2022-10-30T19:22:16.740Z,41.05
2022-10-30T19:25:16.116Z,42.47
2022-10-30T19:27:44.116Z,44.25
2022-10-30T19:30:12.871Z,42.20
2022-10-30T19:32:40.946Z,41.90
2022-10-30T19:35:28.248Z,41.70
2022-10-30T19:37:56.933Z,52.08
2022-10-30T19:40:34.753Z,48.95
2022-10-30T19:43:03.102Z,47.88
2022-10-30T19:45:32.199Z,43.53
2022-10-30T19:48:02.043Z,42.67
2022-10-30T19:50:30.032Z,41.92
2022-10-30T19:53:02.250Z,38.67
2022-10-30T19:55:32.038Z,42.40
2022-10-30T19:58:01.170Z,39.83
2022-10-30T20:00:47.775Z,40.63
2022-10-30T20:03:33.929Z,43.47
2022-10-30T20:06:01.864Z,42.35
2022-10-30T20:08:30.045Z,46.28
2022-10-30T20:11:02.219Z,47.40
2022-10-30T20:13:50.758Z,48.60
2022-10-30T20:16:40.908Z,46.42
2022-10-30T20:19:28.170Z,46.92
2022-10-30T20:21:56.188Z,75.97
2022-10-30T20:24:24.547Z,58.42
2022-10-30T20:27:10.881Z,57.58
2022-10-30T20:29:42.313Z,58.45
2022-10-30T20:32:10.622Z,62.08
2022-10-30T20:34:56.824Z,60.92
2022-10-30T20:37:24.950Z,60.45
2022-10-30T20:39:52.611Z,59.88
2022-10-30T20:42:22.547Z,61.60
2022-10-30T20:44:50.615Z,60.58
2022-10-30T20:47:18.509Z,60.88
2022-10-30T20:49:46.449Z,62.30
2022-10-30T20:52:14.151Z,60.35
2022-10-30T20:54:42.249Z,57.00
2022-10-30T20:57:09.954Z,58.42
2022-10-30T20:59:37.695Z,56.83
2022-10-30T21:02:05.729Z,56.42
2022-10-30T21:04:33.693Z,55.08
2022-10-30T21:07:01.422Z,52.97
2022-10-30T21:09:47.509Z,53.50
2022-10-30T21:12:15.380Z,52.13
2022-10-30T21:14:43.106Z,52.65
2022-10-30T21:17:10.861Z,55.05
2022-10-30T21:19:39.297Z,52.25
2022-10-30T21:22:07.017Z,51.38
2022-10-30T21:24:34.732Z,50.10
2022-10-30T21:27:02.586Z,51.00
2022-10-30T21:29:48.682Z,50.00
2022-10-30T21:32:16.596Z,48.20
2022-10-30T21:35:02.986Z,50.65
2022-10-30T21:37:49.070Z,50.35
2022-10-30T21:40:17.107Z,50.83
2022-10-30T21:42:47.404Z,45.03
2022-10-30T21:45:33.439Z,45.42
2022-10-30T21:48:01.310Z,42.75
2022-10-30T21:50:47.757Z,38.25
2022-10-30T21:53:15.618Z,36.03
2022-10-30T21:55:43.395Z,34.40
2022-10-30T21:58:11.066Z,33.10
2022-10-30T22:00:38.923Z,33.28
2022-10-30T22:03:06.557Z,34.22
2022-10-30T22:05:34.257Z,34.75
2022-10-30T22:08:02.371Z,34.42
2022-10-30T22:10:30.201Z,34.45
2022-10-30T22:12:57.947Z,35.17
2022-10-30T22:15:44.062Z,34.92
2022-10-30T22:18:12.039Z,34.13
2022-10-30T22:20:39.683Z,35.67
2022-10-30T22:23:07.366Z,34.33
2022-10-30T22:25:57.747Z,35.20
2022-10-30T22:28:26.487Z,35.42
2022-10-30T22:31:14.037Z,35.22
2022-10-30T22:33:43.011Z,37.58
2022-10-30T22:36:18.832Z,36.38
2022-10-30T22:38:48.168Z,35.72
2022-10-30T22:41:18.623Z,35.22
2022-10-30T22:44:07.882Z,35.55
2022-10-30T22:46:54.787Z,35.67
2022-10-30T22:49:22.663Z,33.78
2022-10-30T22:51:50.307Z,33.95
2022-10-30T22:54:36.280Z,35.83
2022-10-30T22:57:04.490Z,35.72
2022-10-30T22:59:32.227Z,34.95
2022-10-30T23:02:00.099Z,37.40
2022-10-30T23:04:28.060Z,38.28
2022-10-30T23:06:55.791Z,38.92
2022-10-30T23:09:23.644Z,37.72
2022-10-30T23:11:51.517Z,38.05
2022-10-30T23:14:19.521Z,43.30
2022-10-30T23:16:47.209Z,42.15
2022-10-30T23:19:15.206Z,36.28
2022-10-30T23:21:42.851Z,40.78
2022-10-30T23:24:10.699Z,38.90
2022-10-30T23:26:38.474Z,42.47
2022-10-30T23:29:06.569Z,42.20
2022-10-30T23:31:39.791Z,43.97
2022-10-30T23:34:10.867Z,46.08
2022-10-30T23:36:38.928Z,43.63
2022-10-30T23:39:09.625Z,46.60
2022-10-30T23:41:37.756Z,48.15
2022-10-30T23:44:10.684Z,45.13
2022-10-30T23:46:38.906Z,43.63
2022-10-30T23:49:07.002Z,49.58
2022-10-30T23:51:34.721Z,46.03
2022-10-30T23:54:03.164Z,49.38
2022-10-30T23:56:31.257Z,49.92
2022-10-30T23:59:00.300Z,46.63
